Kenosha, Wisconsin
Current Conditions -  °F | °C
As of 9:53 PM on Friday 28 Nov 2014 (Local Time) from KENW Reporting Station
Few Clouds Few Clouds  
Wind Chill: 26°   Ceiling: Unl
Heat Index: 31°   Visibility: 7mi
Dew Point: 27°   Wind: 5mph
Humidity: 85%   Direction: 170°S
Pressure: 29.9"   Gusts: NA
Location:  42.59°N, 87.82°W
Report Text: KENW 290353Z AUTO 17004KT 7SM FEW110 M01/M03 A2990 RMK AO2 SLP137 T10061028
Loading
Personal Weather Stations






























Interactive Weather Map New forecast layout! Learn more

10-Day Weather Forecast

Advertisements
Track Severe Weather on mobile